sensor_id;sensor_type;location;lat;lon;timestamp;temperature;humidity
44723;DHT22;30451;48.638;10.624;2023-12-04T00:00:43;20.70;52.70
44723;DHT22;30451;48.638;10.624;2023-12-04T00:03:08;20.60;52.60
44723;DHT22;30451;48.638;10.624;2023-12-04T00:05:34;20.60;52.60
44723;DHT22;30451;48.638;10.624;2023-12-04T00:07:59;20.60;52.60
44723;DHT22;30451;48.638;10.624;2023-12-04T00:10:25;20.60;52.60
44723;DHT22;30451;48.638;10.624;2023-12-04T00:12:51;20.60;52.60
44723;DHT22;30451;48.638;10.624;2023-12-04T00:15:19;20.60;52.60
44723;DHT22;30451;48.638;10.624;2023-12-04T00:17:44;20.60;52.60
44723;DHT22;30451;48.638;10.624;2023-12-04T00:20:10;20.50;53.10
44723;DHT22;30451;48.638;10.624;2023-12-04T00:22:37;20.50;52.60
44723;DHT22;30451;48.638;10.624;2023-12-04T00:25:03;20.50;52.60
44723;DHT22;30451;48.638;10.624;2023-12-04T00:27:30;20.50;52.60
44723;DHT22;30451;48.638;10.624;2023-12-04T00:29:56;20.50;52.60
44723;DHT22;30451;48.638;10.624;2023-12-04T00:32:22;20.50;52.60
44723;DHT22;30451;48.638;10.624;2023-12-04T00:34:47;20.50;52.60
44723;DHT22;30451;48.638;10.624;2023-12-04T00:37:13;20.50;52.60
44723;DHT22;30451;48.638;10.624;2023-12-04T00:39:38;20.40;52.50
44723;DHT22;30451;48.638;10.624;2023-12-04T00:42:05;20.40;52.50
44723;DHT22;30451;48.638;10.624;2023-12-04T00:44:30;20.40;52.50
44723;DHT22;30451;48.638;10.624;2023-12-04T00:46:56;20.40;52.50
44723;DHT22;30451;48.638;10.624;2023-12-04T00:49:23;20.40;52.50
44723;DHT22;30451;48.638;10.624;2023-12-04T00:51:48;20.40;52.50
44723;DHT22;30451;48.638;10.624;2023-12-04T00:54:14;20.40;52.50
44723;DHT22;30451;48.638;10.624;2023-12-04T00:56:40;20.40;52.50
44723;DHT22;30451;48.638;10.624;2023-12-04T00:59:07;20.40;52.50
44723;DHT22;30451;48.638;10.624;2023-12-04T01:01:33;20.40;52.50
44723;DHT22;30451;48.638;10.624;2023-12-04T01:03:59;20.30;52.50
44723;DHT22;30451;48.638;10.624;2023-12-04T01:06:25;20.30;52.50
44723;DHT22;30451;48.638;10.624;2023-12-04T01:08:52;20.30;52.50
44723;DHT22;30451;48.638;10.624;2023-12-04T01:11:18;20.30;52.50
44723;DHT22;30451;48.638;10.624;2023-12-04T01:13:45;20.30;52.60
44723;DHT22;30451;48.638;10.624;2023-12-04T01:16:10;20.30;52.50
44723;DHT22;30451;48.638;10.624;2023-12-04T01:18:36;20.30;52.60
44723;DHT22;30451;48.638;10.624;2023-12-04T01:21:02;20.30;52.60
44723;DHT22;30451;48.638;10.624;2023-12-04T01:23:28;20.20;52.50
44723;DHT22;30451;48.638;10.624;2023-12-04T01:25:53;20.30;52.60
44723;DHT22;30451;48.638;10.624;2023-12-04T01:28:19;20.30;52.60
44723;DHT22;30451;48.638;10.624;2023-12-04T01:30:44;20.20;52.50
44723;DHT22;30451;48.638;10.624;2023-12-04T01:33:10;20.20;52.60
44723;DHT22;30451;48.638;10.624;2023-12-04T01:35:36;20.20;52.60
44723;DHT22;30451;48.638;10.624;2023-12-04T01:38:01;20.20;52.50
44723;DHT22;30451;48.638;10.624;2023-12-04T01:40:27;20.20;52.60
44723;DHT22;30451;48.638;10.624;2023-12-04T01:42:53;20.20;52.60
44723;DHT22;30451;48.638;10.624;2023-12-04T01:45:18;20.10;52.50
44723;DHT22;30451;48.638;10.624;2023-12-04T01:47:45;20.10;52.50
44723;DHT22;30451;48.638;10.624;2023-12-04T01:50:12;20.10;53.10
44723;DHT22;30451;48.638;10.624;2023-12-04T01:52:39;20.10;52.50
44723;DHT22;30451;48.638;10.624;2023-12-04T01:55:07;20.10;52.50
44723;DHT22;30451;48.638;10.624;2023-12-04T01:57:34;20.10;52.60
44723;DHT22;30451;48.638;10.624;2023-12-04T02:00:00;20.10;52.60
44723;DHT22;30451;48.638;10.624;2023-12-04T02:02:28;20.10;52.60
44723;DHT22;30451;48.638;10.624;2023-12-04T02:04:55;20.00;52.60
44723;DHT22;30451;48.638;10.624;2023-12-04T02:07:22;20.10;52.70
44723;DHT22;30451;48.638;10.624;2023-12-04T02:09:48;20.00;52.60
44723;DHT22;30451;48.638;10.624;2023-12-04T02:12:13;20.00;52.60
44723;DHT22;30451;48.638;10.624;2023-12-04T02:14:39;20.00;52.60
44723;DHT22;30451;48.638;10.624;2023-12-04T02:17:06;20.00;52.60
44723;DHT22;30451;48.638;10.624;2023-12-04T02:19:33;20.00;52.60
44723;DHT22;30451;48.638;10.624;2023-12-04T02:21:59;20.00;52.70
44723;DHT22;30451;48.638;10.624;2023-12-04T02:24:25;20.00;52.70
44723;DHT22;30451;48.638;10.624;2023-12-04T02:26:56;19.90;52.70
44723;DHT22;30451;48.638;10.624;2023-12-04T02:29:31;19.90;52.70
44723;DHT22;30451;48.638;10.624;2023-12-04T02:31:58;19.90;52.80
44723;DHT22;30451;48.638;10.624;2023-12-04T02:34:27;19.90;52.80
44723;DHT22;30451;48.638;10.624;2023-12-04T02:36:54;19.90;52.80
44723;DHT22;30451;48.638;10.624;2023-12-04T02:39:20;19.90;52.90
44723;DHT22;30451;48.638;10.624;2023-12-04T02:41:46;19.90;52.90
44723;DHT22;30451;48.638;10.624;2023-12-04T02:44:11;19.90;52.90
44723;DHT22;30451;48.638;10.624;2023-12-04T02:46:37;19.80;52.90
44723;DHT22;30451;48.638;10.624;2023-12-04T02:49:03;19.80;52.90
44723;DHT22;30451;48.638;10.624;2023-12-04T02:51:29;19.80;53.00
44723;DHT22;30451;48.638;10.624;2023-12-04T02:53:54;19.80;53.00
44723;DHT22;30451;48.638;10.624;2023-12-04T02:56:20;19.80;53.00
44723;DHT22;30451;48.638;10.624;2023-12-04T02:58:45;19.80;53.00
44723;DHT22;30451;48.638;10.624;2023-12-04T03:01:11;19.70;53.10
44723;DHT22;30451;48.638;10.624;2023-12-04T03:03:36;19.70;53.10
44723;DHT22;30451;48.638;10.624;2023-12-04T03:06:02;19.70;53.60
44723;DHT22;30451;48.638;10.624;2023-12-04T03:08:28;19.70;53.10
44723;DHT22;30451;48.638;10.624;2023-12-04T03:10:53;19.70;53.20
44723;DHT22;30451;48.638;10.624;2023-12-04T03:13:19;19.70;53.20
44723;DHT22;30451;48.638;10.624;2023-12-04T03:15:44;19.70;53.20
44723;DHT22;30451;48.638;10.624;2023-12-04T03:18:10;19.70;53.20
44723;DHT22;30451;48.638;10.624;2023-12-04T03:20:36;19.70;53.30
44723;DHT22;30451;48.638;10.624;2023-12-04T03:23:01;19.70;53.30
44723;DHT22;30451;48.638;10.624;2023-12-04T03:25:27;19.70;53.30
44723;DHT22;30451;48.638;10.624;2023-12-04T03:27:52;19.60;53.30
44723;DHT22;30451;48.638;10.624;2023-12-04T03:30:18;19.60;53.30
44723;DHT22;30451;48.638;10.624;2023-12-04T03:32:45;19.60;53.30
44723;DHT22;30451;48.638;10.624;2023-12-04T03:35:11;19.60;53.30
44723;DHT22;30451;48.638;10.624;2023-12-04T03:37:36;19.60;53.30
44723;DHT22;30451;48.638;10.624;2023-12-04T03:40:02;19.60;53.40
44723;DHT22;30451;48.638;10.624;2023-12-04T03:42:28;19.60;53.30
44723;DHT22;30451;48.638;10.624;2023-12-04T03:44:53;19.50;53.30
44723;DHT22;30451;48.638;10.624;2023-12-04T03:47:19;19.60;53.40
44723;DHT22;30451;48.638;10.624;2023-12-04T03:49:45;19.60;53.40
44723;DHT22;30451;48.638;10.624;2023-12-04T03:52:10;19.60;53.40
44723;DHT22;30451;48.638;10.624;2023-12-04T03:54:36;19.60;53.40
44723;DHT22;30451;48.638;10.624;2023-12-04T03:57:02;19.50;53.30
44723;DHT22;30451;48.638;10.624;2023-12-04T03:59:27;19.50;53.40
44723;DHT22;30451;48.638;10.624;2023-12-04T04:01:53;19.50;53.40
44723;DHT22;30451;48.638;10.624;2023-12-04T04:04:18;19.50;53.40
44723;DHT22;30451;48.638;10.624;2023-12-04T04:06:44;19.50;53.40
44723;DHT22;30451;48.638;10.624;2023-12-04T04:09:09;19.50;53.40
44723;DHT22;30451;48.638;10.624;2023-12-04T04:11:35;19.50;53.40
44723;DHT22;30451;48.638;10.624;2023-12-04T04:14:01;19.50;53.40
44723;DHT22;30451;48.638;10.624;2023-12-04T04:16:26;19.50;53.40
44723;DHT22;30451;48.638;10.624;2023-12-04T04:18:52;19.50;53.40
44723;DHT22;30451;48.638;10.624;2023-12-04T04:21:17;19.50;53.40
44723;DHT22;30451;48.638;10.624;2023-12-04T04:23:43;19.50;53.40
44723;DHT22;30451;48.638;10.624;2023-12-04T04:26:08;19.40;53.30
44723;DHT22;30451;48.638;10.624;2023-12-04T04:28:34;19.50;53.40
44723;DHT22;30451;48.638;10.624;2023-12-04T04:31:00;19.50;53.40
44723;DHT22;30451;48.638;10.624;2023-12-04T04:33:25;19.50;53.40
44723;DHT22;30451;48.638;10.624;2023-12-04T04:35:51;19.50;53.40
44723;DHT22;30451;48.638;10.624;2023-12-04T04:38:16;19.40;53.40
44723;DHT22;30451;48.638;10.624;2023-12-04T04:40:42;19.40;53.40
44723;DHT22;30451;48.638;10.624;2023-12-04T04:43:10;19.40;53.40
44723;DHT22;30451;48.638;10.624;2023-12-04T04:45:35;19.40;53.90
44723;DHT22;30451;48.638;10.624;2023-12-04T04:48:01;19.40;53.90
44723;DHT22;30451;48.638;10.624;2023-12-04T04:50:27;19.40;53.40
44723;DHT22;30451;48.638;10.624;2023-12-04T04:52:52;19.40;53.40
44723;DHT22;30451;48.638;10.624;2023-12-04T04:55:18;19.40;53.40
44723;DHT22;30451;48.638;10.624;2023-12-04T04:57:44;19.40;53.40
44723;DHT22;30451;48.638;10.624;2023-12-04T05:00:10;19.40;53.40
44723;DHT22;30451;48.638;10.624;2023-12-04T05:02:35;19.40;53.40
44723;DHT22;30451;48.638;10.624;2023-12-04T05:05:02;19.40;53.50
44723;DHT22;30451;48.638;10.624;2023-12-04T05:07:29;19.40;53.40
44723;DHT22;30451;48.638;10.624;2023-12-04T05:09:54;19.40;53.40
44723;DHT22;30451;48.638;10.624;2023-12-04T05:12:20;19.40;53.40
44723;DHT22;30451;48.638;10.624;2023-12-04T05:14:45;19.40;53.40
44723;DHT22;30451;48.638;10.624;2023-12-04T05:17:11;19.40;53.50
44723;DHT22;30451;48.638;10.624;2023-12-04T05:19:37;19.40;53.50
44723;DHT22;30451;48.638;10.624;2023-12-04T05:22:03;19.40;53.50
44723;DHT22;30451;48.638;10.624;2023-12-04T05:24:28;19.40;53.50
44723;DHT22;30451;48.638;10.624;2023-12-04T05:26:54;19.40;53.50
44723;DHT22;30451;48.638;10.624;2023-12-04T05:29:19;19.40;53.60
44723;DHT22;30451;48.638;10.624;2023-12-04T05:31:45;19.40;53.60
44723;DHT22;30451;48.638;10.624;2023-12-04T05:34:11;19.40;53.60
44723;DHT22;30451;48.638;10.624;2023-12-04T05:36:36;19.40;53.60
44723;DHT22;30451;48.638;10.624;2023-12-04T05:39:02;19.40;53.60
44723;DHT22;30451;48.638;10.624;2023-12-04T05:41:28;19.40;53.70
44723;DHT22;30451;48.638;10.624;2023-12-04T05:43:54;19.40;53.70
44723;DHT22;30451;48.638;10.624;2023-12-04T05:46:19;19.40;53.70
44723;DHT22;30451;48.638;10.624;2023-12-04T05:48:45;19.40;53.70
44723;DHT22;30451;48.638;10.624;2023-12-04T05:51:10;19.40;53.70
44723;DHT22;30451;48.638;10.624;2023-12-04T05:53:36;19.40;53.80
44723;DHT22;30451;48.638;10.624;2023-12-04T05:56:04;19.40;53.80
44723;DHT22;30451;48.638;10.624;2023-12-04T05:58:29;19.40;53.80
44723;DHT22;30451;48.638;10.624;2023-12-04T06:00:55;19.40;53.80
44723;DHT22;30451;48.638;10.624;2023-12-04T06:03:21;19.40;53.80
44723;DHT22;30451;48.638;10.624;2023-12-04T06:05:46;19.40;53.80
44723;DHT22;30451;48.638;10.624;2023-12-04T06:08:12;19.40;53.80
44723;DHT22;30451;48.638;10.624;2023-12-04T06:10:38;19.40;53.80
44723;DHT22;30451;48.638;10.624;2023-12-04T06:13:03;19.40;53.90
44723;DHT22;30451;48.638;10.624;2023-12-04T06:15:29;19.40;53.90
44723;DHT22;30451;48.638;10.624;2023-12-04T06:17:55;19.40;53.90
44723;DHT22;30451;48.638;10.624;2023-12-04T06:20:20;19.30;53.80
44723;DHT22;30451;48.638;10.624;2023-12-04T06:22:46;19.40;54.00
44723;DHT22;30451;48.638;10.624;2023-12-04T06:25:12;19.40;54.00
44723;DHT22;30451;48.638;10.624;2023-12-04T06:27:38;19.30;53.90
44723;DHT22;30451;48.638;10.624;2023-12-04T06:30:05;19.30;53.90
44723;DHT22;30451;48.638;10.624;2023-12-04T06:32:32;19.40;54.00
44723;DHT22;30451;48.638;10.624;2023-12-04T06:34:58;19.30;53.90
44723;DHT22;30451;48.638;10.624;2023-12-04T06:37:24;19.30;53.90
44723;DHT22;30451;48.638;10.624;2023-12-04T06:39:50;19.30;54.70
44723;DHT22;30451;48.638;10.624;2023-12-04T06:42:18;19.40;55.00
44723;DHT22;30451;48.638;10.624;2023-12-04T06:44:44;19.50;56.00
44723;DHT22;30451;48.638;10.624;2023-12-04T06:47:12;19.60;56.00
44723;DHT22;30451;48.638;10.624;2023-12-04T06:49:37;19.80;55.80
44723;DHT22;30451;48.638;10.624;2023-12-04T06:52:04;20.00;55.00
44723;DHT22;30451;48.638;10.624;2023-12-04T06:54:29;20.10;55.20
44723;DHT22;30451;48.638;10.624;2023-12-04T06:56:55;20.20;54.50
44723;DHT22;30451;48.638;10.624;2023-12-04T06:59:21;20.30;54.10
44723;DHT22;30451;48.638;10.624;2023-12-04T07:01:47;20.40;54.00
44723;DHT22;30451;48.638;10.624;2023-12-04T07:04:12;20.50;53.90
44723;DHT22;30451;48.638;10.624;2023-12-04T07:06:39;20.60;53.90
44723;DHT22;30451;48.638;10.624;2023-12-04T07:09:05;20.70;54.60
44723;DHT22;30451;48.638;10.624;2023-12-04T07:11:33;20.80;53.50
44723;DHT22;30451;48.638;10.624;2023-12-04T07:13:59;20.90;53.20
44723;DHT22;30451;48.638;10.624;2023-12-04T07:16:25;21.00;53.20
44723;DHT22;30451;48.638;10.624;2023-12-04T07:18:50;21.20;53.00
44723;DHT22;30451;48.638;10.624;2023-12-04T07:21:16;21.20;52.60
44723;DHT22;30451;48.638;10.624;2023-12-04T07:23:41;21.30;52.40
44723;DHT22;30451;48.638;10.624;2023-12-04T07:26:07;21.40;52.20
44723;DHT22;30451;48.638;10.624;2023-12-04T07:28:33;21.50;52.20
44723;DHT22;30451;48.638;10.624;2023-12-04T07:31:00;21.60;51.80
44723;DHT22;30451;48.638;10.624;2023-12-04T07:33:28;21.70;51.40
44723;DHT22;30451;48.638;10.624;2023-12-04T07:35:54;21.90;51.30
44723;DHT22;30451;48.638;10.624;2023-12-04T07:38:20;22.00;51.10
44723;DHT22;30451;48.638;10.624;2023-12-04T07:40:46;22.00;51.20
44723;DHT22;30451;48.638;10.624;2023-12-04T07:43:12;22.00;51.20
44723;DHT22;30451;48.638;10.624;2023-12-04T07:45:40;22.00;50.70
44723;DHT22;30451;48.638;10.624;2023-12-04T07:48:06;22.00;50.40
44723;DHT22;30451;48.638;10.624;2023-12-04T07:50:32;22.00;50.40
44723;DHT22;30451;48.638;10.624;2023-12-04T07:52:57;21.90;50.30
44723;DHT22;30451;48.638;10.624;2023-12-04T07:55:23;21.90;50.50
44723;DHT22;30451;48.638;10.624;2023-12-04T07:57:48;22.00;51.10
44723;DHT22;30451;48.638;10.624;2023-12-04T08:00:16;22.20;51.10
44723;DHT22;30451;48.638;10.624;2023-12-04T08:02:43;22.40;50.40
44723;DHT22;30451;48.638;10.624;2023-12-04T08:05:10;22.50;50.00
44723;DHT22;30451;48.638;10.624;2023-12-04T08:07:35;22.60;50.40
44723;DHT22;30451;48.638;10.624;2023-12-04T08:10:01;22.50;50.60
44723;DHT22;30451;48.638;10.624;2023-12-04T08:12:27;22.40;50.70
44723;DHT22;30451;48.638;10.624;2023-12-04T08:14:52;22.40;50.90
44723;DHT22;30451;48.638;10.624;2023-12-04T08:17:18;22.30;51.20
44723;DHT22;30451;48.638;10.624;2023-12-04T08:19:44;22.30;51.80
44723;DHT22;30451;48.638;10.624;2023-12-04T08:22:10;22.30;51.60
44723;DHT22;30451;48.638;10.624;2023-12-04T08:24:35;22.40;51.40
44723;DHT22;30451;48.638;10.624;2023-12-04T08:27:01;22.40;51.30
44723;DHT22;30451;48.638;10.624;2023-12-04T08:29:26;22.50;51.30
44723;DHT22;30451;48.638;10.624;2023-12-04T08:31:52;22.50;51.70
44723;DHT22;30451;48.638;10.624;2023-12-04T08:34:18;22.50;51.70
44723;DHT22;30451;48.638;10.624;2023-12-04T08:36:43;22.50;52.10
44723;DHT22;30451;48.638;10.624;2023-12-04T08:39:09;22.40;52.40
44723;DHT22;30451;48.638;10.624;2023-12-04T08:41:35;22.40;52.20
44723;DHT22;30451;48.638;10.624;2023-12-04T08:44:00;22.40;50.80
44723;DHT22;30451;48.638;10.624;2023-12-04T08:46:26;22.50;49.70
44723;DHT22;30451;48.638;10.624;2023-12-04T08:48:51;22.60;49.50
44723;DHT22;30451;48.638;10.624;2023-12-04T08:51:17;22.60;49.30
44723;DHT22;30451;48.638;10.624;2023-12-04T08:53:43;22.50;49.30
44723;DHT22;30451;48.638;10.624;2023-12-04T08:56:09;22.50;49.20
44723;DHT22;30451;48.638;10.624;2023-12-04T08:58:36;22.50;49.30
44723;DHT22;30451;48.638;10.624;2023-12-04T09:01:02;22.40;49.30
44723;DHT22;30451;48.638;10.624;2023-12-04T09:03:29;22.40;49.40
44723;DHT22;30451;48.638;10.624;2023-12-04T09:05:56;22.50;49.50
44723;DHT22;30451;48.638;10.624;2023-12-04T09:08:23;22.50;49.50
44723;DHT22;30451;48.638;10.624;2023-12-04T09:10:51;22.40;49.50
44723;DHT22;30451;48.638;10.624;2023-12-04T09:13:16;22.40;49.50
44723;DHT22;30451;48.638;10.624;2023-12-04T09:15:42;22.40;49.60
44723;DHT22;30451;48.638;10.624;2023-12-04T09:18:07;22.30;49.60
44723;DHT22;30451;48.638;10.624;2023-12-04T09:20:34;22.30;49.50
44723;DHT22;30451;48.638;10.624;2023-12-04T09:22:59;22.40;49.80
44723;DHT22;30451;48.638;10.624;2023-12-04T09:25:25;22.40;49.70
44723;DHT22;30451;48.638;10.624;2023-12-04T09:27:51;22.50;49.70
44723;DHT22;30451;48.638;10.624;2023-12-04T09:30:17;22.50;49.50
44723;DHT22;30451;48.638;10.624;2023-12-04T09:32:43;22.60;49.40
44723;DHT22;30451;48.638;10.624;2023-12-04T09:35:09;22.70;49.30
44723;DHT22;30451;48.638;10.624;2023-12-04T09:37:34;22.70;49.60
44723;DHT22;30451;48.638;10.624;2023-12-04T09:40:00;22.80;50.10
44723;DHT22;30451;48.638;10.624;2023-12-04T09:42:26;22.90;50.30
44723;DHT22;30451;48.638;10.624;2023-12-04T09:44:52;23.00;50.40
44723;DHT22;30451;48.638;10.624;2023-12-04T09:47:20;23.20;50.40
44723;DHT22;30451;48.638;10.624;2023-12-04T09:49:47;23.30;50.40
44723;DHT22;30451;48.638;10.624;2023-12-04T09:52:14;23.40;50.50
44723;DHT22;30451;48.638;10.624;2023-12-04T09:54:40;23.50;50.70
44723;DHT22;30451;48.638;10.624;2023-12-04T09:57:06;23.70;51.10
44723;DHT22;30451;48.638;10.624;2023-12-04T09:59:32;23.80;50.50
44723;DHT22;30451;48.638;10.624;2023-12-04T10:01:58;24.00;50.40
44723;DHT22;30451;48.638;10.624;2023-12-04T10:04:25;24.20;50.20
44723;DHT22;30451;48.638;10.624;2023-12-04T10:06:53;24.40;50.30
44723;DHT22;30451;48.638;10.624;2023-12-04T10:09:19;24.50;50.10
44723;DHT22;30451;48.638;10.624;2023-12-04T10:11:48;24.60;50.20
44723;DHT22;30451;48.638;10.624;2023-12-04T10:14:20;24.70;50.10
44723;DHT22;30451;48.638;10.624;2023-12-04T10:16:46;24.80;50.00
44723;DHT22;30451;48.638;10.624;2023-12-04T10:19:25;25.00;50.00
44723;DHT22;30451;48.638;10.624;2023-12-04T10:21:58;25.10;50.00
44723;DHT22;30451;48.638;10.624;2023-12-04T10:24:37;25.20;50.00
44723;DHT22;30451;48.638;10.624;2023-12-04T10:27:08;25.40;49.90
44723;DHT22;30451;48.638;10.624;2023-12-04T10:29:45;25.40;49.80
44723;DHT22;30451;48.638;10.624;2023-12-04T10:32:11;25.60;49.70
44723;DHT22;30451;48.638;10.624;2023-12-04T10:34:37;25.80;49.40
44723;DHT22;30451;48.638;10.624;2023-12-04T10:37:04;25.90;49.20
44723;DHT22;30451;48.638;10.624;2023-12-04T10:39:30;26.10;49.10
44723;DHT22;30451;48.638;10.624;2023-12-04T10:42:03;26.20;48.80
44723;DHT22;30451;48.638;10.624;2023-12-04T10:44:30;26.40;48.80
44723;DHT22;30451;48.638;10.624;2023-12-04T10:46:57;26.30;48.70
44723;DHT22;30451;48.638;10.624;2023-12-04T10:49:26;26.20;49.10
44723;DHT22;30451;48.638;10.624;2023-12-04T10:51:55;25.90;49.30
44723;DHT22;30451;48.638;10.624;2023-12-04T10:54:22;25.80;49.60
44723;DHT22;30451;48.638;10.624;2023-12-04T10:56:51;25.70;49.70
44723;DHT22;30451;48.638;10.624;2023-12-04T10:59:23;25.50;49.70
44723;DHT22;30451;48.638;10.624;2023-12-04T11:01:51;25.50;49.90
44723;DHT22;30451;48.638;10.624;2023-12-04T11:04:23;25.40;50.10
44723;DHT22;30451;48.638;10.624;2023-12-04T11:06:52;25.30;50.10
44723;DHT22;30451;48.638;10.624;2023-12-04T11:09:17;25.30;50.20
44723;DHT22;30451;48.638;10.624;2023-12-04T11:11:48;25.30;50.50
44723;DHT22;30451;48.638;10.624;2023-12-04T11:14:16;25.20;50.70
44723;DHT22;30451;48.638;10.624;2023-12-04T11:16:48;25.20;50.80
44723;DHT22;30451;48.638;10.624;2023-12-04T11:21:58;25.20;51.00
44723;DHT22;30451;48.638;10.624;2023-12-04T11:24:24;25.20;51.10
44723;DHT22;30451;48.638;10.624;2023-12-04T11:26:50;25.10;51.70
44723;DHT22;30451;48.638;10.624;2023-12-04T11:29:17;25.10;51.50
44723;DHT22;30451;48.638;10.624;2023-12-04T11:31:43;25.10;51.50
44723;DHT22;30451;48.638;10.624;2023-12-04T11:34:09;25.10;51.50
44723;DHT22;30451;48.638;10.624;2023-12-04T11:36:35;25.10;51.50
44723;DHT22;30451;48.638;10.624;2023-12-04T11:39:01;25.10;51.50
44723;DHT22;30451;48.638;10.624;2023-12-04T11:41:30;25.00;51.50
44723;DHT22;30451;48.638;10.624;2023-12-04T11:43:56;25.00;51.70
44723;DHT22;30451;48.638;10.624;2023-12-04T11:46:23;25.00;51.80
44723;DHT22;30451;48.638;10.624;2023-12-04T11:48:53;24.90;51.70
44723;DHT22;30451;48.638;10.624;2023-12-04T11:54:07;24.90;51.80
44723;DHT22;30451;48.638;10.624;2023-12-04T11:56:33;24.90;51.80
44723;DHT22;30451;48.638;10.624;2023-12-04T11:59:06;24.90;51.90
44723;DHT22;30451;48.638;10.624;2023-12-04T12:01:38;24.90;52.10
44723;DHT22;30451;48.638;10.624;2023-12-04T12:04:08;24.80;52.30
44723;DHT22;30451;48.638;10.624;2023-12-04T12:06:35;24.80;52.20
44723;DHT22;30451;48.638;10.624;2023-12-04T12:09:01;24.80;52.10
44723;DHT22;30451;48.638;10.624;2023-12-04T12:11:27;24.80;52.20
44723;DHT22;30451;48.638;10.624;2023-12-04T12:13:53;24.80;52.30
44723;DHT22;30451;48.638;10.624;2023-12-04T12:16:19;24.80;52.30
44723;DHT22;30451;48.638;10.624;2023-12-04T12:18:45;24.80;51.50
44723;DHT22;30451;48.638;10.624;2023-12-04T12:21:11;24.80;48.20
44723;DHT22;30451;48.638;10.624;2023-12-04T12:23:37;24.70;47.10
44723;DHT22;30451;48.638;10.624;2023-12-04T12:26:02;24.70;46.50
44723;DHT22;30451;48.638;10.624;2023-12-04T12:28:28;24.60;46.20
44723;DHT22;30451;48.638;10.624;2023-12-04T12:30:55;24.50;46.10
44723;DHT22;30451;48.638;10.624;2023-12-04T12:33:21;24.50;45.90
44723;DHT22;30451;48.638;10.624;2023-12-04T12:35:48;24.40;45.80
44723;DHT22;30451;48.638;10.624;2023-12-04T12:38:14;24.30;45.80
44723;DHT22;30451;48.638;10.624;2023-12-04T12:40:40;24.30;46.20
44723;DHT22;30451;48.638;10.624;2023-12-04T12:43:06;24.20;46.60
44723;DHT22;30451;48.638;10.624;2023-12-04T12:45:42;24.10;46.90
44723;DHT22;30451;48.638;10.624;2023-12-04T12:48:16;24.10;47.10
44723;DHT22;30451;48.638;10.624;2023-12-04T12:50:45;24.00;47.30
44723;DHT22;30451;48.638;10.624;2023-12-04T12:53:11;24.00;47.50
44723;DHT22;30451;48.638;10.624;2023-12-04T12:55:40;23.90;47.60
44723;DHT22;30451;48.638;10.624;2023-12-04T12:58:06;23.90;47.80
44723;DHT22;30451;48.638;10.624;2023-12-04T13:00:34;23.80;47.90
44723;DHT22;30451;48.638;10.624;2023-12-04T13:03:00;23.90;47.90
44723;DHT22;30451;48.638;10.624;2023-12-04T13:05:26;23.80;47.10
44723;DHT22;30451;48.638;10.624;2023-12-04T13:07:51;23.80;46.70
44723;DHT22;30451;48.638;10.624;2023-12-04T13:10:17;23.80;46.40
44723;DHT22;30451;48.638;10.624;2023-12-04T13:12:43;23.80;46.20
44723;DHT22;30451;48.638;10.624;2023-12-04T13:15:09;23.80;46.30
44723;DHT22;30451;48.638;10.624;2023-12-04T13:17:36;23.70;46.20
44723;DHT22;30451;48.638;10.624;2023-12-04T13:20:02;23.70;46.20
44723;DHT22;30451;48.638;10.624;2023-12-04T13:22:29;23.70;46.30
44723;DHT22;30451;48.638;10.624;2023-12-04T13:24:55;23.60;46.20
44723;DHT22;30451;48.638;10.624;2023-12-04T13:27:21;23.60;46.30
44723;DHT22;30451;48.638;10.624;2023-12-04T13:29:46;23.50;46.30
44723;DHT22;30451;48.638;10.624;2023-12-04T13:32:15;23.40;46.40
44723;DHT22;30451;48.638;10.624;2023-12-04T13:34:41;23.40;46.40
44723;DHT22;30451;48.638;10.624;2023-12-04T13:37:08;23.40;46.50
44723;DHT22;30451;48.638;10.624;2023-12-04T13:39:34;23.30;46.50
44723;DHT22;30451;48.638;10.624;2023-12-04T13:42:14;23.30;46.50
44723;DHT22;30451;48.638;10.624;2023-12-04T13:44:59;23.20;46.50
44723;DHT22;30451;48.638;10.624;2023-12-04T13:47:24;23.20;46.60
44723;DHT22;30451;48.638;10.624;2023-12-04T13:49:50;23.20;46.70
44723;DHT22;30451;48.638;10.624;2023-12-04T13:52:15;23.10;46.70
44723;DHT22;30451;48.638;10.624;2023-12-04T13:54:45;23.10;46.80
44723;DHT22;30451;48.638;10.624;2023-12-04T13:57:13;23.00;46.80
44723;DHT22;30451;48.638;10.624;2023-12-04T13:59:46;23.00;46.80
44723;DHT22;30451;48.638;10.624;2023-12-04T14:02:12;23.00;46.90
44723;DHT22;30451;48.638;10.624;2023-12-04T14:04:38;22.90;47.00
44723;DHT22;30451;48.638;10.624;2023-12-04T14:07:04;22.90;47.00
44723;DHT22;30451;48.638;10.624;2023-12-04T14:09:31;22.80;47.00
44723;DHT22;30451;48.638;10.624;2023-12-04T14:11:57;22.80;47.00
44723;DHT22;30451;48.638;10.624;2023-12-04T14:14:23;22.80;47.20
44723;DHT22;30451;48.638;10.624;2023-12-04T14:16:49;22.80;47.30
44723;DHT22;30451;48.638;10.624;2023-12-04T14:19:14;22.80;47.50
44723;DHT22;30451;48.638;10.624;2023-12-04T14:21:42;22.70;47.50
44723;DHT22;30451;48.638;10.624;2023-12-04T14:24:08;22.70;47.70
44723;DHT22;30451;48.638;10.624;2023-12-04T14:26:33;22.70;47.70
44723;DHT22;30451;48.638;10.624;2023-12-04T14:28:59;22.70;47.70
44723;DHT22;30451;48.638;10.624;2023-12-04T14:31:26;22.70;47.80
44723;DHT22;30451;48.638;10.624;2023-12-04T14:33:52;22.70;47.90
44723;DHT22;30451;48.638;10.624;2023-12-04T14:36:19;22.60;47.90
44723;DHT22;30451;48.638;10.624;2023-12-04T14:38:44;22.60;48.00
44723;DHT22;30451;48.638;10.624;2023-12-04T14:41:10;22.60;48.00
44723;DHT22;30451;48.638;10.624;2023-12-04T14:43:36;22.50;48.00
44723;DHT22;30451;48.638;10.624;2023-12-04T14:46:03;22.50;48.00
44723;DHT22;30451;48.638;10.624;2023-12-04T14:48:29;22.50;48.00
44723;DHT22;30451;48.638;10.624;2023-12-04T14:50:55;22.50;48.10
44723;DHT22;30451;48.638;10.624;2023-12-04T14:53:21;22.50;48.10
44723;DHT22;30451;48.638;10.624;2023-12-04T14:56:10;22.40;48.10
44723;DHT22;30451;48.638;10.624;2023-12-04T14:58:56;22.50;48.20
44723;DHT22;30451;48.638;10.624;2023-12-04T15:01:39;22.50;48.20
44723;DHT22;30451;48.638;10.624;2023-12-04T15:04:23;22.40;48.20
44723;DHT22;30451;48.638;10.624;2023-12-04T15:06:49;22.40;48.30
44723;DHT22;30451;48.638;10.624;2023-12-04T15:09:33;22.40;48.40
44723;DHT22;30451;48.638;10.624;2023-12-04T15:12:17;22.40;48.40
44723;DHT22;30451;48.638;10.624;2023-12-04T15:15:18;22.30;48.50
44723;DHT22;30451;48.638;10.624;2023-12-04T15:17:52;22.30;48.50